This is the latest recevied weather packets stored in our database for station/object YV5KXE-4. If no packets are shown the sender has not sent any weather packets the latest 1 day(s).
| Time | Temp. | Humidity | Pressure | Rain* | Wind** | Luminosity | Snow |
|---|---|---|---|---|---|---|---|
| 1778082904 | 26.67° C | 52% | 1017.4 hPa | 0 mm | - | - | - |
| 1778080204 | 26.11° C | 53% | 1018 hPa | 0 mm | - | - | - |
| 1778079606 | 26.11° C | 55% | 1018 hPa | 0 mm | - | - | - |
| 1778078104 | 25.56° C | 60% | 1018.1 hPa | 0 mm | - | - | - |
| 1778077806 | 25.56° C | 63% | 1018.1 hPa | 0 mm | - | - | - |
| 1778073304 | 23.33° C | 74% | 1018.3 hPa | 0 mm | - | - | - |
| 1778070904 | 23.89° C | 73% | 1017.8 hPa | 0 mm | - | - | - |
| 1778070606 | 23.33° C | 73% | 1017.7 hPa | 0 mm | - | - | - |
| 1778066704 | 21.67° C | 81% | 1017.2 hPa | 0 mm | - | - | - |
| 1778066104 | 21.11° C | 82% | 1017 hPa | 0 mm | - | - | - |
| 1778065504 | 20.56° C | 81% | 1016.9 hPa | 0 mm | - | - | - |
| 1778064904 | 20.56° C | 82% | 1016.8 hPa | 0 mm | - | - | - |
| 1778064304 | 20.56° C | 82% | 1016.8 hPa | 0 mm | - | - | - |
| 1778061304 | 20.56° C | 81% | 1016.5 hPa | 0 mm | - | - | - |
| 1778060704 | 20.56° C | 80% | 1016.5 hPa | 0 mm | - | - | - |
| 1778060104 | 20.56° C | 79% | 1016.3 hPa | 0 mm | - | - | - |
| 1778059204 | 20.56° C | 78% | 1016.3 hPa | 0 mm | - | - | - |
| 1778058904 | 20.56° C | 79% | 1016.3 hPa | 0 mm | - | - | - |
| 1778058304 | 20.56° C | 78% | 1016.3 hPa | 0 mm | - | - | - |
| 1778057404 | 20.56° C | 79% | 1016.4 hPa | 0 mm | - | - | - |
| 1778057104 | 20.56° C | 78% | 1016.3 hPa | 0 mm | - | - | - |
| 1778056804 | 20.56° C | 78% | 1016.2 hPa | 0 mm | - | - | - |
| 1778056504 | 20.56° C | 78% | 1016.2 hPa | 0 mm | - | - | - |
| 1778055604 | 20.56° C | 79% | 1016 hPa | 0 mm | - | - | - |
| 1778054104 | 20.56° C | 81% | 1016.1 hPa | 0 mm | - | - | - |
* Rain latest hour (hover to see other rain measurements)
** Current wind speed in m/s (hover to see current wind gust speed)